sensor_id;sensor_type;location;lat;lon;timestamp;temperature;humidity
5457;DHT22;2751;49.802;9.944;2022-07-17T00:01:13;16.60;99.90
5457;DHT22;2751;49.802;9.944;2022-07-17T00:03:41;16.50;99.90
5457;DHT22;2751;49.802;9.944;2022-07-17T00:06:09;16.40;99.90
5457;DHT22;2751;49.802;9.944;2022-07-17T00:08:36;16.40;99.90
5457;DHT22;2751;49.802;9.944;2022-07-17T00:11:03;16.40;99.90
5457;DHT22;2751;49.802;9.944;2022-07-17T00:13:30;16.40;99.90
5457;DHT22;2751;49.802;9.944;2022-07-17T00:15:57;16.40;99.90
5457;DHT22;2751;49.802;9.944;2022-07-17T00:18:24;16.40;99.90
5457;DHT22;2751;49.802;9.944;2022-07-17T00:20:51;16.30;99.90
5457;DHT22;2751;49.802;9.944;2022-07-17T00:23:19;16.30;99.90
5457;DHT22;2751;49.802;9.944;2022-07-17T00:25:46;16.30;99.90
5457;DHT22;2751;49.802;9.944;2022-07-17T00:28:13;16.20;99.90
5457;DHT22;2751;49.802;9.944;2022-07-17T00:30:40;16.20;99.90
5457;DHT22;2751;49.802;9.944;2022-07-17T00:33:07;16.10;99.90
5457;DHT22;2751;49.802;9.944;2022-07-17T00:35:34;16.00;99.90
5457;DHT22;2751;49.802;9.944;2022-07-17T00:38:01;16.10;99.90
5457;DHT22;2751;49.802;9.944;2022-07-17T00:40:29;16.00;99.90
5457;DHT22;2751;49.802;9.944;2022-07-17T00:42:56;16.00;99.90
5457;DHT22;2751;49.802;9.944;2022-07-17T00:45:23;16.00;99.90
5457;DHT22;2751;49.802;9.944;2022-07-17T00:47:53;15.90;99.90
5457;DHT22;2751;49.802;9.944;2022-07-17T00:50:22;15.90;99.90
5457;DHT22;2751;49.802;9.944;2022-07-17T00:52:50;15.80;99.90
5457;DHT22;2751;49.802;9.944;2022-07-17T00:55:17;15.80;99.90
5457;DHT22;2751;49.802;9.944;2022-07-17T00:57:48;15.70;99.90
5457;DHT22;2751;49.802;9.944;2022-07-17T01:00:16;15.70;99.90
5457;DHT22;2751;49.802;9.944;2022-07-17T01:02:45;15.70;99.90
5457;DHT22;2751;49.802;9.944;2022-07-17T01:05:14;15.60;99.90
5457;DHT22;2751;49.802;9.944;2022-07-17T01:07:41;15.50;99.90
5457;DHT22;2751;49.802;9.944;2022-07-17T01:10:09;15.40;99.90
5457;DHT22;2751;49.802;9.944;2022-07-17T01:12:36;15.30;99.90
5457;DHT22;2751;49.802;9.944;2022-07-17T01:15:05;15.20;99.90
5457;DHT22;2751;49.802;9.944;2022-07-17T01:17:32;15.10;99.90
5457;DHT22;2751;49.802;9.944;2022-07-17T01:20:01;15.10;99.90
5457;DHT22;2751;49.802;9.944;2022-07-17T01:22:29;15.10;99.90
5457;DHT22;2751;49.802;9.944;2022-07-17T01:24:56;15.10;99.90
5457;DHT22;2751;49.802;9.944;2022-07-17T01:27:23;15.10;99.90
5457;DHT22;2751;49.802;9.944;2022-07-17T01:29:50;15.10;99.90
5457;DHT22;2751;49.802;9.944;2022-07-17T01:32:16;15.00;99.90
5457;DHT22;2751;49.802;9.944;2022-07-17T01:34:43;15.00;99.90
5457;DHT22;2751;49.802;9.944;2022-07-17T01:37:10;14.90;99.90
5457;DHT22;2751;49.802;9.944;2022-07-17T01:39:39;14.80;99.90
5457;DHT22;2751;49.802;9.944;2022-07-17T01:42:21;14.80;99.90
5457;DHT22;2751;49.802;9.944;2022-07-17T01:44:49;14.70;99.90
5457;DHT22;2751;49.802;9.944;2022-07-17T01:47:16;14.70;99.90
5457;DHT22;2751;49.802;9.944;2022-07-17T01:49:44;14.70;99.90
5457;DHT22;2751;49.802;9.944;2022-07-17T01:52:11;14.70;99.90
5457;DHT22;2751;49.802;9.944;2022-07-17T01:54:40;14.70;99.90
5457;DHT22;2751;49.802;9.944;2022-07-17T01:57:08;14.70;99.90
5457;DHT22;2751;49.802;9.944;2022-07-17T01:59:36;14.70;99.90
5457;DHT22;2751;49.802;9.944;2022-07-17T02:02:03;14.70;99.90
5457;DHT22;2751;49.802;9.944;2022-07-17T02:04:31;14.60;99.90
5457;DHT22;2751;49.802;9.944;2022-07-17T02:06:58;14.60;99.90
5457;DHT22;2751;49.802;9.944;2022-07-17T02:09:25;14.50;99.90
5457;DHT22;2751;49.802;9.944;2022-07-17T02:11:53;14.50;99.90
5457;DHT22;2751;49.802;9.944;2022-07-17T02:14:20;14.50;99.90
5457;DHT22;2751;49.802;9.944;2022-07-17T02:16:47;14.50;99.90
5457;DHT22;2751;49.802;9.944;2022-07-17T02:19:14;14.50;99.90
5457;DHT22;2751;49.802;9.944;2022-07-17T02:21:41;14.50;99.90
5457;DHT22;2751;49.802;9.944;2022-07-17T02:24:07;14.40;99.90
5457;DHT22;2751;49.802;9.944;2022-07-17T02:26:34;14.40;99.90
5457;DHT22;2751;49.802;9.944;2022-07-17T02:29:03;14.40;99.90
5457;DHT22;2751;49.802;9.944;2022-07-17T02:31:30;14.30;99.90
5457;DHT22;2751;49.802;9.944;2022-07-17T02:33:57;14.30;99.90
5457;DHT22;2751;49.802;9.944;2022-07-17T02:36:24;14.30;99.90
5457;DHT22;2751;49.802;9.944;2022-07-17T02:38:51;14.30;99.90
5457;DHT22;2751;49.802;9.944;2022-07-17T02:41:18;14.20;99.90
5457;DHT22;2751;49.802;9.944;2022-07-17T02:43:45;14.20;99.90
5457;DHT22;2751;49.802;9.944;2022-07-17T02:46:14;14.20;99.90
5457;DHT22;2751;49.802;9.944;2022-07-17T02:48:40;14.10;99.90
5457;DHT22;2751;49.802;9.944;2022-07-17T02:51:07;14.10;99.90
5457;DHT22;2751;49.802;9.944;2022-07-17T02:53:34;14.10;99.90
5457;DHT22;2751;49.802;9.944;2022-07-17T02:56:01;14.10;99.90
5457;DHT22;2751;49.802;9.944;2022-07-17T02:58:28;14.10;99.90
5457;DHT22;2751;49.802;9.944;2022-07-17T03:00:55;14.00;99.90
5457;DHT22;2751;49.802;9.944;2022-07-17T03:03:24;14.00;99.90
5457;DHT22;2751;49.802;9.944;2022-07-17T03:05:51;14.00;99.90
5457;DHT22;2751;49.802;9.944;2022-07-17T03:08:18;13.90;99.90
5457;DHT22;2751;49.802;9.944;2022-07-17T03:10:44;13.90;99.90
5457;DHT22;2751;49.802;9.944;2022-07-17T03:13:11;13.90;1.00
5457;DHT22;2751;49.802;9.944;2022-07-17T03:15:38;13.90;99.90
5457;DHT22;2751;49.802;9.944;2022-07-17T03:18:05;13.90;99.90
5457;DHT22;2751;49.802;9.944;2022-07-17T03:20:33;13.80;99.90
5457;DHT22;2751;49.802;9.944;2022-07-17T03:23:00;13.80;1.00
5457;DHT22;2751;49.802;9.944;2022-07-17T03:25:27;13.80;1.00
5457;DHT22;2751;49.802;9.944;2022-07-17T03:27:54;13.70;1.00
5457;DHT22;2751;49.802;9.944;2022-07-17T03:30:21;13.70;1.00
5457;DHT22;2751;49.802;9.944;2022-07-17T03:32:48;13.70;1.00
5457;DHT22;2751;49.802;9.944;2022-07-17T03:35:14;13.60;1.00
5457;DHT22;2751;49.802;9.944;2022-07-17T03:37:43;13.60;1.00
5457;DHT22;2751;49.802;9.944;2022-07-17T03:40:11;13.60;1.00
5457;DHT22;2751;49.802;9.944;2022-07-17T03:42:38;13.60;1.00
5457;DHT22;2751;49.802;9.944;2022-07-17T03:45:06;13.50;1.00
5457;DHT22;2751;49.802;9.944;2022-07-17T03:47:33;13.50;1.00
5457;DHT22;2751;49.802;9.944;2022-07-17T03:50:00;13.50;1.00
5457;DHT22;2751;49.802;9.944;2022-07-17T03:52:27;13.50;1.00
5457;DHT22;2751;49.802;9.944;2022-07-17T03:54:58;13.40;1.00
5457;DHT22;2751;49.802;9.944;2022-07-17T03:57:25;13.30;1.00
5457;DHT22;2751;49.802;9.944;2022-07-17T03:59:52;13.30;1.00
5457;DHT22;2751;49.802;9.944;2022-07-17T04:02:19;13.30;1.00
5457;DHT22;2751;49.802;9.944;2022-07-17T04:04:46;13.30;1.00
5457;DHT22;2751;49.802;9.944;2022-07-17T04:07:13;13.30;1.00
5457;DHT22;2751;49.802;9.944;2022-07-17T04:09:58;13.30;1.00
5457;DHT22;2751;49.802;9.944;2022-07-17T04:12:26;13.30;1.00
5457;DHT22;2751;49.802;9.944;2022-07-17T04:14:53;13.30;1.00
5457;DHT22;2751;49.802;9.944;2022-07-17T04:17:20;13.30;1.00
5457;DHT22;2751;49.802;9.944;2022-07-17T04:19:48;13.30;1.00
5457;DHT22;2751;49.802;9.944;2022-07-17T04:22:16;13.30;1.00
5457;DHT22;2751;49.802;9.944;2022-07-17T04:24:43;13.30;1.00
5457;DHT22;2751;49.802;9.944;2022-07-17T04:27:11;13.30;1.00
5457;DHT22;2751;49.802;9.944;2022-07-17T04:29:39;13.30;1.00
5457;DHT22;2751;49.802;9.944;2022-07-17T04:32:06;13.30;1.00
5457;DHT22;2751;49.802;9.944;2022-07-17T04:34:33;13.20;1.00
5457;DHT22;2751;49.802;9.944;2022-07-17T04:37:01;13.20;1.00
5457;DHT22;2751;49.802;9.944;2022-07-17T04:39:28;13.20;1.00
5457;DHT22;2751;49.802;9.944;2022-07-17T04:41:56;13.20;1.00
5457;DHT22;2751;49.802;9.944;2022-07-17T04:44:24;13.20;1.00
5457;DHT22;2751;49.802;9.944;2022-07-17T04:46:51;13.20;1.00
5457;DHT22;2751;49.802;9.944;2022-07-17T04:49:18;13.20;1.00
5457;DHT22;2751;49.802;9.944;2022-07-17T04:51:45;13.30;1.00
5457;DHT22;2751;49.802;9.944;2022-07-17T04:54:11;13.30;1.00
5457;DHT22;2751;49.802;9.944;2022-07-17T04:56:38;13.30;1.00
5457;DHT22;2751;49.802;9.944;2022-07-17T04:59:05;13.30;1.00
5457;DHT22;2751;49.802;9.944;2022-07-17T05:01:34;13.30;1.00
5457;DHT22;2751;49.802;9.944;2022-07-17T05:04:00;13.40;1.00
5457;DHT22;2751;49.802;9.944;2022-07-17T05:06:28;13.40;1.00
5457;DHT22;2751;49.802;9.944;2022-07-17T05:08:55;13.40;1.00
5457;DHT22;2751;49.802;9.944;2022-07-17T05:11:21;13.30;1.00
5457;DHT22;2751;49.802;9.944;2022-07-17T05:13:48;13.40;1.00
5457;DHT22;2751;49.802;9.944;2022-07-17T05:16:15;13.40;1.00
5457;DHT22;2751;49.802;9.944;2022-07-17T05:18:43;13.40;1.00
5457;DHT22;2751;49.802;9.944;2022-07-17T05:21:10;13.40;1.00
5457;DHT22;2751;49.802;9.944;2022-07-17T05:23:39;13.50;1.00
5457;DHT22;2751;49.802;9.944;2022-07-17T05:26:07;13.60;1.00
5457;DHT22;2751;49.802;9.944;2022-07-17T05:28:34;13.70;1.00
5457;DHT22;2751;49.802;9.944;2022-07-17T05:31:01;13.80;1.00
5457;DHT22;2751;49.802;9.944;2022-07-17T05:33:28;14.00;1.00
5457;DHT22;2751;49.802;9.944;2022-07-17T05:35:56;14.10;1.00
5457;DHT22;2751;49.802;9.944;2022-07-17T05:38:23;14.30;1.00
5457;DHT22;2751;49.802;9.944;2022-07-17T05:40:50;14.40;1.00
5457;DHT22;2751;49.802;9.944;2022-07-17T05:43:17;14.60;1.00
5457;DHT22;2751;49.802;9.944;2022-07-17T05:45:44;14.80;99.90
5457;DHT22;2751;49.802;9.944;2022-07-17T05:48:11;14.90;99.90
5457;DHT22;2751;49.802;9.944;2022-07-17T05:50:38;15.00;99.90
5457;DHT22;2751;49.802;9.944;2022-07-17T05:53:06;15.10;99.90
5457;DHT22;2751;49.802;9.944;2022-07-17T05:55:33;15.30;99.90
5457;DHT22;2751;49.802;9.944;2022-07-17T05:58:00;15.30;99.90
5457;DHT22;2751;49.802;9.944;2022-07-17T06:00:27;15.50;99.90
5457;DHT22;2751;49.802;9.944;2022-07-17T06:02:55;15.60;99.90
5457;DHT22;2751;49.802;9.944;2022-07-17T06:05:22;15.60;99.90
5457;DHT22;2751;49.802;9.944;2022-07-17T06:07:50;15.80;99.90
5457;DHT22;2751;49.802;9.944;2022-07-17T06:10:19;15.90;99.90
5457;DHT22;2751;49.802;9.944;2022-07-17T06:12:46;16.00;99.90
5457;DHT22;2751;49.802;9.944;2022-07-17T06:15:13;16.20;99.90
5457;DHT22;2751;49.802;9.944;2022-07-17T06:17:40;16.30;99.90
5457;DHT22;2751;49.802;9.944;2022-07-17T06:20:07;16.40;99.90
5457;DHT22;2751;49.802;9.944;2022-07-17T06:22:34;16.50;99.90
5457;DHT22;2751;49.802;9.944;2022-07-17T06:25:01;16.50;99.90
5457;DHT22;2751;49.802;9.944;2022-07-17T06:27:30;16.80;99.90
5457;DHT22;2751;49.802;9.944;2022-07-17T06:29:56;17.00;99.90
5457;DHT22;2751;49.802;9.944;2022-07-17T06:32:23;17.20;99.90
5457;DHT22;2751;49.802;9.944;2022-07-17T06:34:50;17.50;99.90
5457;DHT22;2751;49.802;9.944;2022-07-17T06:37:17;17.70;99.90
5457;DHT22;2751;49.802;9.944;2022-07-17T06:39:44;17.90;99.90
5457;DHT22;2751;49.802;9.944;2022-07-17T06:42:11;18.10;99.90
5457;DHT22;2751;49.802;9.944;2022-07-17T06:44:39;18.20;99.90
5457;DHT22;2751;49.802;9.944;2022-07-17T06:47:06;18.40;99.90
5457;DHT22;2751;49.802;9.944;2022-07-17T06:49:33;18.50;99.90
5457;DHT22;2751;49.802;9.944;2022-07-17T06:52:01;18.70;99.90
5457;DHT22;2751;49.802;9.944;2022-07-17T06:54:28;19.00;99.90
5457;DHT22;2751;49.802;9.944;2022-07-17T06:56:55;18.90;99.90
5457;DHT22;2751;49.802;9.944;2022-07-17T06:59:22;19.00;99.90
5457;DHT22;2751;49.802;9.944;2022-07-17T07:01:50;19.10;99.90
5457;DHT22;2751;49.802;9.944;2022-07-17T07:04:19;18.80;99.90
5457;DHT22;2751;49.802;9.944;2022-07-17T07:06:49;19.20;99.90
5457;DHT22;2751;49.802;9.944;2022-07-17T07:09:36;19.40;99.90
5457;DHT22;2751;49.802;9.944;2022-07-17T07:12:18;19.50;99.90
5457;DHT22;2751;49.802;9.944;2022-07-17T07:14:49;19.60;99.90
5457;DHT22;2751;49.802;9.944;2022-07-17T07:17:17;19.60;99.90
5457;DHT22;2751;49.802;9.944;2022-07-17T07:19:45;19.60;99.90
5457;DHT22;2751;49.802;9.944;2022-07-17T07:22:11;19.60;99.90
5457;DHT22;2751;49.802;9.944;2022-07-17T07:24:38;19.70;99.90
5457;DHT22;2751;49.802;9.944;2022-07-17T07:27:05;19.60;99.90
5457;DHT22;2751;49.802;9.944;2022-07-17T07:29:33;19.80;99.90
5457;DHT22;2751;49.802;9.944;2022-07-17T07:32:00;19.90;99.90
5457;DHT22;2751;49.802;9.944;2022-07-17T07:34:30;19.90;99.90
5457;DHT22;2751;49.802;9.944;2022-07-17T07:36:57;20.00;99.90
5457;DHT22;2751;49.802;9.944;2022-07-17T07:39:24;20.10;99.90
5457;DHT22;2751;49.802;9.944;2022-07-17T07:41:51;20.10;99.90
5457;DHT22;2751;49.802;9.944;2022-07-17T07:44:18;20.20;99.90
5457;DHT22;2751;49.802;9.944;2022-07-17T07:46:45;20.20;99.90
5457;DHT22;2751;49.802;9.944;2022-07-17T07:49:12;20.30;99.90
5457;DHT22;2751;49.802;9.944;2022-07-17T07:51:41;20.40;99.90
5457;DHT22;2751;49.802;9.944;2022-07-17T07:54:08;20.60;99.90
5457;DHT22;2751;49.802;9.944;2022-07-17T07:56:36;20.60;99.90
5457;DHT22;2751;49.802;9.944;2022-07-17T07:59:03;20.70;99.90
5457;DHT22;2751;49.802;9.944;2022-07-17T08:01:31;20.80;99.90
5457;DHT22;2751;49.802;9.944;2022-07-17T08:03:58;20.90;99.90
5457;DHT22;2751;49.802;9.944;2022-07-17T08:06:29;21.00;99.90
5457;DHT22;2751;49.802;9.944;2022-07-17T08:08:58;21.10;99.90
5457;DHT22;2751;49.802;9.944;2022-07-17T08:11:27;21.20;99.90
5457;DHT22;2751;49.802;9.944;2022-07-17T08:13:54;21.30;99.90
5457;DHT22;2751;49.802;9.944;2022-07-17T08:16:21;21.40;99.90
5457;DHT22;2751;49.802;9.944;2022-07-17T08:18:48;21.40;99.90
5457;DHT22;2751;49.802;9.944;2022-07-17T08:21:18;21.50;99.90
5457;DHT22;2751;49.802;9.944;2022-07-17T08:23:45;21.60;99.90
5457;DHT22;2751;49.802;9.944;2022-07-17T08:26:14;21.70;99.90
5457;DHT22;2751;49.802;9.944;2022-07-17T08:28:41;21.80;99.90
5457;DHT22;2751;49.802;9.944;2022-07-17T08:31:08;21.90;99.90
5457;DHT22;2751;49.802;9.944;2022-07-17T08:33:35;21.90;99.90
5457;DHT22;2751;49.802;9.944;2022-07-17T08:36:02;22.10;99.90
5457;DHT22;2751;49.802;9.944;2022-07-17T08:38:29;22.20;99.90
5457;DHT22;2751;49.802;9.944;2022-07-17T08:40:56;22.30;99.90
5457;DHT22;2751;49.802;9.944;2022-07-17T08:43:26;23.10;99.90
5457;DHT22;2751;49.802;9.944;2022-07-17T08:45:52;24.30;99.90
5457;DHT22;2751;49.802;9.944;2022-07-17T08:48:20;25.10;99.90
5457;DHT22;2751;49.802;9.944;2022-07-17T08:50:47;26.20;99.90
5457;DHT22;2751;49.802;9.944;2022-07-17T08:53:14;26.90;99.90
5457;DHT22;2751;49.802;9.944;2022-07-17T08:55:41;27.10;99.90
5457;DHT22;2751;49.802;9.944;2022-07-17T08:58:14;27.90;99.90
5457;DHT22;2751;49.802;9.944;2022-07-17T09:00:43;28.80;99.90
5457;DHT22;2751;49.802;9.944;2022-07-17T09:03:11;29.60;99.90
5457;DHT22;2751;49.802;9.944;2022-07-17T09:05:39;30.50;99.90
5457;DHT22;2751;49.802;9.944;2022-07-17T09:08:08;31.00;99.90
5457;DHT22;2751;49.802;9.944;2022-07-17T09:10:37;31.20;99.90
5457;DHT22;2751;49.802;9.944;2022-07-17T09:13:17;31.60;99.90
5457;DHT22;2751;49.802;9.944;2022-07-17T09:15:47;32.30;99.90
5457;DHT22;2751;49.802;9.944;2022-07-17T09:18:15;32.30;99.90
5457;DHT22;2751;49.802;9.944;2022-07-17T09:20:47;33.00;99.90
5457;DHT22;2751;49.802;9.944;2022-07-17T09:23:16;32.90;1.00
5457;DHT22;2751;49.802;9.944;2022-07-17T09:25:46;33.20;99.90
5457;DHT22;2751;49.802;9.944;2022-07-17T09:28:15;33.60;99.90
5457;DHT22;2751;49.802;9.944;2022-07-17T09:30:44;34.20;1.00
5457;DHT22;2751;49.802;9.944;2022-07-17T09:33:15;34.80;1.00
5457;DHT22;2751;49.802;9.944;2022-07-17T09:35:50;35.20;1.00
5457;DHT22;2751;49.802;9.944;2022-07-17T09:38:31;35.30;1.00
5457;DHT22;2751;49.802;9.944;2022-07-17T09:41:06;35.70;1.00
5457;DHT22;2751;49.802;9.944;2022-07-17T09:43:42;35.30;1.00
5457;DHT22;2751;49.802;9.944;2022-07-17T09:46:12;35.70;1.00
5457;DHT22;2751;49.802;9.944;2022-07-17T09:48:43;34.70;1.00
5457;DHT22;2751;49.802;9.944;2022-07-17T09:51:18;34.60;1.00
5457;DHT22;2751;49.802;9.944;2022-07-17T09:53:46;35.30;1.00
5457;DHT22;2751;49.802;9.944;2022-07-17T09:56:15;35.70;1.00
5457;DHT22;2751;49.802;9.944;2022-07-17T09:58:45;36.10;1.00
5457;DHT22;2751;49.802;9.944;2022-07-17T10:01:14;35.20;1.00
5457;DHT22;2751;49.802;9.944;2022-07-17T10:03:43;34.80;1.00
5457;DHT22;2751;49.802;9.944;2022-07-17T10:06:11;35.20;1.00
5457;DHT22;2751;49.802;9.944;2022-07-17T10:08:38;36.40;1.00
5457;DHT22;2751;49.802;9.944;2022-07-17T10:11:06;37.60;1.00
5457;DHT22;2751;49.802;9.944;2022-07-17T10:13:35;37.60;1.00
5457;DHT22;2751;49.802;9.944;2022-07-17T10:16:03;37.30;1.00
5457;DHT22;2751;49.802;9.944;2022-07-17T10:18:35;36.30;1.00
5457;DHT22;2751;49.802;9.944;2022-07-17T10:21:15;36.60;1.00
5457;DHT22;2751;49.802;9.944;2022-07-17T10:23:43;36.80;1.00
5457;DHT22;2751;49.802;9.944;2022-07-17T10:26:13;35.80;1.00
5457;DHT22;2751;49.802;9.944;2022-07-17T10:28:42;36.30;1.00
5457;DHT22;2751;49.802;9.944;2022-07-17T10:31:09;37.40;1.00
5457;DHT22;2751;49.802;9.944;2022-07-17T10:33:36;37.70;1.00
5457;DHT22;2751;49.802;9.944;2022-07-17T10:36:04;37.40;1.00
5457;DHT22;2751;49.802;9.944;2022-07-17T10:38:41;37.10;1.00
5457;DHT22;2751;49.802;9.944;2022-07-17T10:41:08;36.20;1.00
5457;DHT22;2751;49.802;9.944;2022-07-17T10:43:42;37.30;1.00
5457;DHT22;2751;49.802;9.944;2022-07-17T10:46:09;38.30;1.00
5457;DHT22;2751;49.802;9.944;2022-07-17T10:48:39;37.70;1.00
5457;DHT22;2751;49.802;9.944;2022-07-17T10:51:07;38.80;1.00
5457;DHT22;2751;49.802;9.944;2022-07-17T10:53:35;39.10;1.00
5457;DHT22;2751;49.802;9.944;2022-07-17T10:56:04;39.70;1.00
5457;DHT22;2751;49.802;9.944;2022-07-17T10:58:32;40.70;1.00
5457;DHT22;2751;49.802;9.944;2022-07-17T11:01:03;41.00;1.00
5457;DHT22;2751;49.802;9.944;2022-07-17T11:03:35;41.50;1.00
5457;DHT22;2751;49.802;9.944;2022-07-17T11:06:16;42.40;1.00
5457;DHT22;2751;49.802;9.944;2022-07-17T11:08:49;42.70;1.00
5457;DHT22;2751;49.802;9.944;2022-07-17T11:11:17;42.90;1.00
5457;DHT22;2751;49.802;9.944;2022-07-17T11:13:44;42.70;1.00
5457;DHT22;2751;49.802;9.944;2022-07-17T11:16:11;41.40;1.00
5457;DHT22;2751;49.802;9.944;2022-07-17T11:18:46;41.20;1.00
5457;DHT22;2751;49.802;9.944;2022-07-17T11:21:13;40.90;1.00
5457;DHT22;2751;49.802;9.944;2022-07-17T11:23:51;41.60;1.00
5457;DHT22;2751;49.802;9.944;2022-07-17T11:26:19;41.90;1.00
5457;DHT22;2751;49.802;9.944;2022-07-17T11:28:47;42.40;1.00
5457;DHT22;2751;49.802;9.944;2022-07-17T11:31:17;42.60;1.00
5457;DHT22;2751;49.802;9.944;2022-07-17T11:33:49;43.30;1.00
5457;DHT22;2751;49.802;9.944;2022-07-17T11:36:23;43.20;1.00
5457;DHT22;2751;49.802;9.944;2022-07-17T11:38:53;43.00;1.00
5457;DHT22;2751;49.802;9.944;2022-07-17T11:41:20;43.10;1.00
5457;DHT22;2751;49.802;9.944;2022-07-17T11:43:47;43.30;1.00
5457;DHT22;2751;49.802;9.944;2022-07-17T11:46:14;42.90;1.00
5457;DHT22;2751;49.802;9.944;2022-07-17T11:48:42;42.60;1.00
5457;DHT22;2751;49.802;9.944;2022-07-17T11:51:10;42.60;1.00
5457;DHT22;2751;49.802;9.944;2022-07-17T11:53:38;43.20;1.00
5457;DHT22;2751;49.802;9.944;2022-07-17T11:56:07;44.10;1.00
5457;DHT22;2751;49.802;9.944;2022-07-17T11:58:43;44.00;1.00
5457;DHT22;2751;49.802;9.944;2022-07-17T12:01:11;43.40;1.00
5457;DHT22;2751;49.802;9.944;2022-07-17T12:03:38;43.10;1.00
5457;DHT22;2751;49.802;9.944;2022-07-17T12:06:05;43.10;1.00
5457;DHT22;2751;49.802;9.944;2022-07-17T12:08:33;44.20;1.00
5457;DHT22;2751;49.802;9.944;2022-07-17T12:11:03;43.60;1.00
5457;DHT22;2751;49.802;9.944;2022-07-17T12:13:49;44.20;1.00
5457;DHT22;2751;49.802;9.944;2022-07-17T12:16:28;43.60;1.00
5457;DHT22;2751;49.802;9.944;2022-07-17T12:19:02;43.40;1.00
5457;DHT22;2751;49.802;9.944;2022-07-17T12:21:31;43.80;1.00
5457;DHT22;2751;49.802;9.944;2022-07-17T12:24:01;44.20;1.00
5457;DHT22;2751;49.802;9.944;2022-07-17T12:26:28;45.00;1.00
5457;DHT22;2751;49.802;9.944;2022-07-17T12:28:57;44.70;1.00
5457;DHT22;2751;49.802;9.944;2022-07-17T12:31:24;44.40;1.00
5457;DHT22;2751;49.802;9.944;2022-07-17T12:33:52;44.50;1.00
5457;DHT22;2751;49.802;9.944;2022-07-17T12:36:20;45.20;1.00
5457;DHT22;2751;49.802;9.944;2022-07-17T12:38:47;43.90;1.00
5457;DHT22;2751;49.802;9.944;2022-07-17T12:41:15;43.60;1.00
5457;DHT22;2751;49.802;9.944;2022-07-17T12:43:42;44.40;1.00
5457;DHT22;2751;49.802;9.944;2022-07-17T12:46:11;44.00;1.00
5457;DHT22;2751;49.802;9.944;2022-07-17T12:48:38;44.60;1.00
5457;DHT22;2751;49.802;9.944;2022-07-17T12:51:08;44.10;1.00
5457;DHT22;2751;49.802;9.944;2022-07-17T12:53:35;44.60;1.00
5457;DHT22;2751;49.802;9.944;2022-07-17T12:56:03;44.40;1.00
5457;DHT22;2751;49.802;9.944;2022-07-17T12:58:30;44.40;1.00
5457;DHT22;2751;49.802;9.944;2022-07-17T13:00:57;45.20;1.00
5457;DHT22;2751;49.802;9.944;2022-07-17T13:03:25;45.00;1.00
5457;DHT22;2751;49.802;9.944;2022-07-17T13:05:52;44.90;1.00
5457;DHT22;2751;49.802;9.944;2022-07-17T13:08:21;45.00;1.00
5457;DHT22;2751;49.802;9.944;2022-07-17T13:10:48;45.00;1.00
5457;DHT22;2751;49.802;9.944;2022-07-17T13:13:15;45.80;1.00
5457;DHT22;2751;49.802;9.944;2022-07-17T13:15:42;46.30;1.00
5457;DHT22;2751;49.802;9.944;2022-07-17T13:18:08;45.50;1.00
5457;DHT22;2751;49.802;9.944;2022-07-17T13:20:37;46.10;1.00
5457;DHT22;2751;49.802;9.944;2022-07-17T13:23:04;45.60;1.00
5457;DHT22;2751;49.802;9.944;2022-07-17T13:25:31;45.20;1.00
5457;DHT22;2751;49.802;9.944;2022-07-17T13:27:58;45.80;1.00
5457;DHT22;2751;49.802;9.944;2022-07-17T13:30:25;45.90;1.00
5457;DHT22;2751;49.802;9.944;2022-07-17T13:32:52;46.50;1.00
5457;DHT22;2751;49.802;9.944;2022-07-17T13:35:19;47.20;1.00
5457;DHT22;2751;49.802;9.944;2022-07-17T13:37:48;47.70;1.00
5457;DHT22;2751;49.802;9.944;2022-07-17T13:40:15;47.20;1.00
5457;DHT22;2751;49.802;9.944;2022-07-17T13:42:44;47.10;1.00
5457;DHT22;2751;49.802;9.944;2022-07-17T13:45:11;46.70;1.00
5457;DHT22;2751;49.802;9.944;2022-07-17T13:47:39;47.00;1.00
5457;DHT22;2751;49.802;9.944;2022-07-17T13:50:06;47.20;1.00
5457;DHT22;2751;49.802;9.944;2022-07-17T13:52:33;46.00;1.00
5457;DHT22;2751;49.802;9.944;2022-07-17T13:55:03;45.70;1.00
5457;DHT22;2751;49.802;9.944;2022-07-17T13:57:30;45.70;1.00
5457;DHT22;2751;49.802;9.944;2022-07-17T13:59:57;45.80;1.00
5457;DHT22;2751;49.802;9.944;2022-07-17T14:02:24;45.30;1.00
5457;DHT22;2751;49.802;9.944;2022-07-17T14:04:51;45.20;1.00
5457;DHT22;2751;49.802;9.944;2022-07-17T14:07:18;44.80;1.00
5457;DHT22;2751;49.802;9.944;2022-07-17T14:09:45;44.30;1.00
5457;DHT22;2751;49.802;9.944;2022-07-17T14:12:13;43.90;1.00
5457;DHT22;2751;49.802;9.944;2022-07-17T14:14:40;44.10;1.00
5457;DHT22;2751;49.802;9.944;2022-07-17T14:17:07;44.60;1.00
5457;DHT22;2751;49.802;9.944;2022-07-17T14:19:34;45.00;1.00
5457;DHT22;2751;49.802;9.944;2022-07-17T14:22:01;45.20;1.00
5457;DHT22;2751;49.802;9.944;2022-07-17T14:24:29;45.20;1.00
5457;DHT22;2751;49.802;9.944;2022-07-17T14:26:56;45.70;1.00
5457;DHT22;2751;49.802;9.944;2022-07-17T14:29:24;46.30;1.00
5457;DHT22;2751;49.802;9.944;2022-07-17T14:31:51;46.00;1.00
5457;DHT22;2751;49.802;9.944;2022-07-17T14:34:17;46.60;1.00
5457;DHT22;2751;49.802;9.944;2022-07-17T14:36:45;47.30;1.00
5457;DHT22;2751;49.802;9.944;2022-07-17T14:39:12;46.60;1.00
5457;DHT22;2751;49.802;9.944;2022-07-17T14:41:39;46.50;1.00
5457;DHT22;2751;49.802;9.944;2022-07-17T14:44:06;46.00;1.00
5457;DHT22;2751;49.802;9.944;2022-07-17T14:46:35;45.50;1.00
5457;DHT22;2751;49.802;9.944;2022-07-17T14:49:02;46.50;1.00
5457;DHT22;2751;49.802;9.944;2022-07-17T14:51:29;46.30;1.00
5457;DHT22;2751;49.802;9.944;2022-07-17T14:53:55;43.80;1.00
5457;DHT22;2751;49.802;9.944;2022-07-17T14:56:22;42.80;99.90
5457;DHT22;2751;49.802;9.944;2022-07-17T14:58:49;42.90;99.90
5457;DHT22;2751;49.802;9.944;2022-07-17T15:01:16;42.10;99.90
5457;DHT22;2751;49.802;9.944;2022-07-17T15:03:44;42.90;99.90
5457;DHT22;2751;49.802;9.944;2022-07-17T15:06:11;42.90;99.90
5457;DHT22;2751;49.802;9.944;2022-07-17T15:08:38;43.30;1.00
5457;DHT22;2751;49.802;9.944;2022-07-17T15:11:05;44.00;1.00
5457;DHT22;2751;49.802;9.944;2022-07-17T15:13:32;43.90;1.00
5457;DHT22;2751;49.802;9.944;2022-07-17T15:15:59;44.00;1.00
5457;DHT22;2751;49.802;9.944;2022-07-17T15:18:26;43.50;1.00
5457;DHT22;2751;49.802;9.944;2022-07-17T15:20:54;43.10;99.90
5457;DHT22;2751;49.802;9.944;2022-07-17T15:23:21;42.50;99.90
5457;DHT22;2751;49.802;9.944;2022-07-17T15:25:48;42.80;99.90
5457;DHT22;2751;49.802;9.944;2022-07-17T15:28:15;43.80;1.00
5457;DHT22;2751;49.802;9.944;2022-07-17T15:30:42;44.20;1.00
5457;DHT22;2751;49.802;9.944;2022-07-17T15:33:09;43.50;1.00
5457;DHT22;2751;49.802;9.944;2022-07-17T15:35:36;43.20;99.90
5457;DHT22;2751;49.802;9.944;2022-07-17T15:38:04;41.70;99.90
5457;DHT22;2751;49.802;9.944;2022-07-17T15:40:31;40.80;99.90
5457;DHT22;2751;49.802;9.944;2022-07-17T15:42:58;41.00;99.90
5457;DHT22;2751;49.802;9.944;2022-07-17T15:45:25;41.30;99.90
5457;DHT22;2751;49.802;9.944;2022-07-17T15:47:51;41.50;99.90
5457;DHT22;2751;49.802;9.944;2022-07-17T15:50:20;41.90;99.90
5457;DHT22;2751;49.802;9.944;2022-07-17T15:52:47;41.60;99.90
5457;DHT22;2751;49.802;9.944;2022-07-17T15:55:15;41.00;99.90
5457;DHT22;2751;49.802;9.944;2022-07-17T15:57:44;41.00;99.90
5457;DHT22;2751;49.802;9.944;2022-07-17T16:00:11;40.70;99.90
5457;DHT22;2751;49.802;9.944;2022-07-17T16:02:39;40.50;99.90
5457;DHT22;2751;49.802;9.944;2022-07-17T16:05:06;40.30;99.90
5457;DHT22;2751;49.802;9.944;2022-07-17T16:07:33;40.00;99.90
5457;DHT22;2751;49.802;9.944;2022-07-17T16:10:00;40.70;99.90
5457;DHT22;2751;49.802;9.944;2022-07-17T16:12:28;41.60;99.90
5457;DHT22;2751;49.802;9.944;2022-07-17T16:14:56;42.20;99.90